Time;durP1;ratioP1;P1;durP2;ratioP2;P2;SDS_P1;SDS_P2;PMS_P1;PMS_P2;Temp;Humidity;BMP_temperature;BMP_pressure;BME280_temperature;BME280_humidity;BME280_pressure;Samples;Min_cycle;Max_cycle;Signal;HPM_P1;HPM_P2
2022/08/06 00:00:07;;;;;;;22.23;11.43;;;;;;;;;;4390390;32;20074;-66
2022/08/06 00:02:34;;;;;;;22.17;11.65;;;;;;;;;;4390169;32;20155;-66
2022/08/06 00:05:01;;;;;;;19.60;11.07;;;;;;;;;;4391664;32;20166;-66
2022/08/06 00:07:28;;;;;;;21.85;11.50;;;;;;;;;;4390003;32;20066;-67
2022/08/06 00:09:56;;;;;;;18.73;11.48;;;;;;;;;;4389944;32;20073;-66
2022/08/06 00:12:22;;;;;;;21.77;10.95;;;;;;;;;;4389773;32;20070;-65
2022/08/06 00:14:49;;;;;;;19.85;9.27;;;;;;;;;;4390526;32;20177;-67
2022/08/06 00:17:18;;;;;;;16.20;8.60;;;;;;;;;;4377732;32;20180;-67
2022/08/06 00:19:45;;;;;;;19.45;9.02;;;;;;;;;;4390332;32;20078;-66
2022/08/06 00:22:11;;;;;;;15.20;8.93;;;;;;;;;;4377896;32;20073;-66
2022/08/06 00:24:38;;;;;;;18.12;9.00;;;;;;;;;;4389767;32;20085;-67
2022/08/06 00:27:05;;;;;;;19.62;8.88;;;;;;;;;;4391375;32;20193;-67
2022/08/06 00:29:31;;;;;;;15.90;9.88;;;;;;;;;;4390373;32;20073;-67
2022/08/06 00:31:58;;;;;;;18.40;9.77;;;;;;;;;;4389780;32;20081;-67
2022/08/06 00:34:24;;;;;;;18.48;10.35;;;;;;;;;;4377878;32;20085;-67
2022/08/06 00:36:51;;;;;;;17.50;10.02;;;;;;;;;;4391450;32;20093;-67
2022/08/06 00:39:18;;;;;;;16.27;9.40;;;;;;;;;;4377159;32;20074;-67
2022/08/06 00:41:45;;;;;;;19.17;10.00;;;;;;;;;;4377111;32;20542;-67
2022/08/06 00:44:12;;;;;;;17.80;10.23;;;;;;;;;;4390195;32;20141;-66
2022/08/06 00:46:38;;;;;;;19.40;10.63;;;;;;;;;;4391345;32;20121;-67
2022/08/06 00:49:05;;;;;;;18.83;10.43;;;;;;;;;;4391306;32;20496;-66
2022/08/06 00:51:34;;;;;;;18.90;10.30;;;;;;;;;;4389834;32;20081;-67
2022/08/06 00:54:01;;;;;;;18.65;11.48;;;;;;;;;;4391272;32;20491;-67
2022/08/06 00:56:28;;;;;;;19.50;11.70;;;;;;;;;;4390178;32;20085;-67
2022/08/06 00:58:55;;;;;;;18.50;10.02;;;;;;;;;;4391207;32;20452;-66
2022/08/06 01:01:22;;;;;;;18.83;10.20;;;;;;;;;;4389482;32;20576;-67
2022/08/06 01:03:48;;;;;;;17.90;12.00;;;;;;;;;;4389776;32;20611;-66
2022/08/06 01:06:15;;;;;;;21.40;12.90;;;;;;;;;;4389825;32;20541;-68
2022/08/06 01:08:42;;;;;;;19.42;11.23;;;;;;;;;;4390446;32;20070;-67
2022/08/06 01:11:08;;;;;;;20.70;11.90;;;;;;;;;;4389641;32;20094;-67
2022/08/06 01:13:35;;;;;;;17.95;11.77;;;;;;;;;;4390044;32;20184;-67
2022/08/06 01:16:08;;;;;;;20.67;11.88;;;;;;;;;;4390164;32;20185;-67
2022/08/06 01:18:59;;;;;;;19.65;11.60;;;;;;;;;;4389812;32;20167;-66
2022/08/06 01:22:08;;;;;;;16.12;11.15;;;;;;;;;;4390881;32;20078;-67
2022/08/06 01:25:10;;;;;;;17.23;10.38;;;;;;;;;;4389711;32;20512;-67
2022/08/06 01:27:42;;;;;;;18.40;10.80;;;;;;;;;;4389555;32;20074;-66
2022/08/06 01:30:15;;;;;;;18.95;10.43;;;;;;;;;;4391251;32;20516;-67
2022/08/06 01:33:06;;;;;;;20.40;11.18;;;;;;;;;;4389406;32;20166;-67
2022/08/06 01:35:39;;;;;;;16.02;10.05;;;;;;;;;;4390469;32;20149;-67
2022/08/06 01:38:12;;;;;;;21.30;11.15;;;;;;;;;;4392799;32;20223;-67
2022/08/06 01:40:40;;;;;;;15.40;9.73;;;;;;;;;;4380193;32;20081;-67
2022/08/06 01:43:09;;;;;;;13.15;9.02;;;;;;;;;;4394073;32;20078;-67
2022/08/06 01:45:36;;;;;;;22.15;10.82;;;;;;;;;;4395886;32;20097;-67
2022/08/06 01:48:07;;;;;;;18.85;9.73;;;;;;;;;;4393840;32;20529;-67
2022/08/06 01:50:37;;;;;;;18.60;11.10;;;;;;;;;;4379575;32;20101;-67
2022/08/06 01:53:06;;;;;;;20.33;10.55;;;;;;;;;;4380122;32;20081;-67
2022/08/06 01:55:42;;;;;;;16.75;10.20;;;;;;;;;;4392627;32;20178;-66
2022/08/06 01:58:10;;;;;;;19.98;10.07;;;;;;;;;;4391896;32;20172;-66
2022/08/06 02:00:42;;;;;;;17.42;10.48;;;;;;;;;;4391685;32;20081;-66
2022/08/06 02:03:35;;;;;;;22.25;10.65;;;;;;;;;;4392011;32;20149;-67
2022/08/06 02:06:02;;;;;;;19.50;11.32;;;;;;;;;;4392409;32;20097;-66
2022/08/06 02:08:32;;;;;;;20.55;11.23;;;;;;;;;;4391656;32;20150;-66
2022/08/06 02:11:00;;;;;;;21.58;10.40;;;;;;;;;;4391759;32;20516;-67
2022/08/06 02:13:28;;;;;;;17.30;10.10;;;;;;;;;;4392085;32;20173;-66
2022/08/06 02:15:54;;;;;;;19.50;10.75;;;;;;;;;;4391838;32;20101;-67
2022/08/06 02:18:22;;;;;;;21.08;10.63;;;;;;;;;;4392214;32;20084;-66
2022/08/06 02:20:51;;;;;;;19.85;11.05;;;;;;;;;;4391453;32;20093;-67
2022/08/06 02:23:21;;;;;;;21.77;12.15;;;;;;;;;;4391682;32;20073;-66
2022/08/06 02:25:49;;;;;;;21.62;11.45;;;;;;;;;;4391510;32;20187;-67
2022/08/06 02:28:18;;;;;;;16.20;11.80;;;;;;;;;;4366213;32;20153;-67
2022/08/06 02:30:47;;;;;;;19.10;11.63;;;;;;;;;;4391389;32;20085;-67
2022/08/06 02:33:14;;;;;;;19.27;10.68;;;;;;;;;;4391631;32;20173;-66
2022/08/06 02:35:52;;;;;;;20.85;11.98;;;;;;;;;;4391588;32;20571;-66
2022/08/06 02:38:31;;;;;;;19.27;10.52;;;;;;;;;;4391833;32;20113;-66
2022/08/06 02:41:03;;;;;;;15.23;10.95;;;;;;;;;;4391657;32;20082;-67
2022/08/06 02:43:35;;;;;;;19.05;11.80;;;;;;;;;;4391316;32;20159;-67
2022/08/06 02:46:15;;;;;;;21.48;11.27;;;;;;;;;;4391117;32;20071;-67
2022/08/06 02:48:44;;;;;;;16.70;11.30;;;;;;;;;;4393045;32;20174;-66
2022/08/06 02:51:15;;;;;;;22.48;11.43;;;;;;;;;;4391634;32;20089;-66
2022/08/06 02:54:00;;;;;;;16.23;11.07;;;;;;;;;;4391558;32;20081;-67
2022/08/06 02:56:27;;;;;;;16.92;10.50;;;;;;;;;;4391543;32;20088;-66
2022/08/06 02:58:54;;;;;;;23.35;10.98;;;;;;;;;;4391510;32;20165;-67
2022/08/06 03:01:24;;;;;;;17.80;11.65;;;;;;;;;;4390803;32;20089;-67
2022/08/06 03:03:54;;;;;;;20.15;11.77;;;;;;;;;;4391157;32;20502;-67
2022/08/06 03:06:21;;;;;;;21.25;11.25;;;;;;;;;;4391575;32;20173;-67
2022/08/06 03:08:51;;;;;;;21.62;12.65;;;;;;;;;;4390637;32;20520;-67
2022/08/06 03:11:18;;;;;;;21.40;9.60;;;;;;;;;;4390802;32;20588;-67
2022/08/06 03:13:45;;;;;;;14.55;10.02;;;;;;;;;;4378352;32;20173;-67
2022/08/06 03:16:23;;;;;;;17.87;10.60;;;;;;;;;;3834226;37;20043;-66
2022/08/06 03:18:51;;;;;;;21.15;9.70;;;;;;;;;;4390929;32;20061;-67
2022/08/06 03:21:17;;;;;;;14.38;8.88;;;;;;;;;;4390592;32;20077;-67
2022/08/06 03:23:45;;;;;;;15.98;9.57;;;;;;;;;;4390196;32;20088;-68
2022/08/06 03:26:12;;;;;;;16.45;10.13;;;;;;;;;;4390209;32;20156;-67
2022/08/06 03:28:38;;;;;;;16.60;10.05;;;;;;;;;;4390520;32;20108;-67
2022/08/06 03:31:06;;;;;;;12.93;9.00;;;;;;;;;;4390905;32;20610;-66
2022/08/06 03:33:33;;;;;;;13.98;10.02;;;;;;;;;;4390417;32;20101;-66
2022/08/06 03:36:01;;;;;;;18.35;8.95;;;;;;;;;;4404299;32;20077;-67
2022/08/06 03:38:31;;;;;;;15.55;9.57;;;;;;;;;;4378059;32;20153;-67
2022/08/06 03:41:00;;;;;;;14.90;9.60;;;;;;;;;;4377900;32;20070;-66
2022/08/06 03:43:26;;;;;;;16.20;8.57;;;;;;;;;;4390378;32;20146;-67
2022/08/06 03:45:56;;;;;;;13.98;8.82;;;;;;;;;;4390290;32;20169;-67
2022/08/06 03:48:27;;;;;;;10.45;8.80;;;;;;;;;;4378036;32;20085;-66
2022/08/06 03:50:54;;;;;;;14.20;8.52;;;;;;;;;;4404441;32;20181;-66
2022/08/06 03:53:23;;;;;;;15.52;8.70;;;;;;;;;;4390526;32;20088;-67
2022/08/06 03:55:54;;;;;;;14.50;8.73;;;;;;;;;;4389969;32;20082;-66
2022/08/06 03:58:21;;;;;;;13.10;8.57;;;;;;;;;;4377642;32;20085;-67
2022/08/06 04:00:54;;;;;;;17.30;8.70;;;;;;;;;;4389841;32;20455;-67
2022/08/06 04:03:21;;;;;;;12.80;9.02;;;;;;;;;;4380606;32;20085;-68
2022/08/06 04:05:48;;;;;;;12.02;9.40;;;;;;;;;;4374622;32;20145;-66
2022/08/06 04:08:16;;;;;;;11.82;9.57;;;;;;;;;;4362476;32;20085;-67
2022/08/06 04:10:44;;;;;;;12.37;9.20;;;;;;;;;;4362422;32;20081;-66
2022/08/06 04:13:13;;;;;;;15.30;9.90;;;;;;;;;;4374779;32;20077;-67
2022/08/06 04:15:40;;;;;;;13.90;9.60;;;;;;;;;;4374247;32;20528;-67
2022/08/06 04:18:16;;;;;;;15.18;10.00;;;;;;;;;;4375076;32;20134;-66
2022/08/06 04:20:45;;;;;;;15.37;10.23;;;;;;;;;;4375736;32;20150;-66
2022/08/06 04:23:12;;;;;;;15.00;9.93;;;;;;;;;;4362455;32;20074;-67
2022/08/06 04:25:49;;;;;;;18.17;10.70;;;;;;;;;;4360966;32;20081;-66
2022/08/06 04:28:17;;;;;;;17.85;10.98;;;;;;;;;;4366359;32;20134;-70
2022/08/06 04:30:44;;;;;;;17.00;11.48;;;;;;;;;;4368454;32;20074;-66
2022/08/06 04:33:13;;;;;;;19.42;11.12;;;;;;;;;;4352341;32;20070;-67
2022/08/06 04:35:40;;;;;;;17.95;11.40;;;;;;;;;;4364527;32;20093;-66
2022/08/06 04:38:10;;;;;;;16.40;11.55;;;;;;;;;;4378119;32;20101;-67
2022/08/06 04:40:38;;;;;;;17.55;11.93;;;;;;;;;;4364403;32;20082;-66
2022/08/06 04:43:08;;;;;;;17.87;10.65;;;;;;;;;;4351813;32;20086;-66
2022/08/06 04:45:37;;;;;;;21.10;11.07;;;;;;;;;;4364808;32;20150;-67
2022/08/06 04:48:08;;;;;;;15.88;10.77;;;;;;;;;;4364165;32;20552;-66
2022/08/06 04:50:36;;;;;;;20.12;11.27;;;;;;;;;;4364708;32;20090;-67
2022/08/06 04:53:11;;;;;;;18.02;11.93;;;;;;;;;;4364389;32;20142;-67
2022/08/06 04:58:18;;;;;;;21.52;11.38;;;;;;;;;;3831927;37;20066;-67
2022/08/06 05:00:46;;;;;;;20.67;11.05;;;;;;;;;;4378517;32;20065;-66
2022/08/06 05:03:14;;;;;;;15.68;10.85;;;;;;;;;;4369772;32;20089;-67
2022/08/06 05:06:09;;;;;;;19.27;12.30;;;;;;;;;;4375433;32;20153;-67
2022/08/06 05:08:38;;;;;;;19.15;10.60;;;;;;;;;;4374424;32;20154;-67
2022/08/06 05:11:16;;;;;;;19.12;12.10;;;;;;;;;;4375292;32;20101;-67
2022/08/06 05:13:45;;;;;;;20.77;11.30;;;;;;;;;;4375804;32;20156;-67
2022/08/06 05:16:14;;;;;;;17.12;11.45;;;;;;;;;;4374878;32;20524;-67
2022/08/06 05:18:44;;;;;;;19.15;11.40;;;;;;;;;;4389189;32;20085;-66
2022/08/06 05:21:15;;;;;;;19.65;11.80;;;;;;;;;;4363008;32;20082;-66
2022/08/06 05:23:49;;;;;;;15.68;10.32;;;;;;;;;;4375759;32;20140;-66
2022/08/06 05:26:17;;;;;;;15.57;10.02;;;;;;;;;;4375476;32;20093;-67
2022/08/06 05:28:43;;;;;;;20.88;10.90;;;;;;;;;;4362708;32;20170;-67
2022/08/06 05:31:10;;;;;;;19.95;9.88;;;;;;;;;;4389070;32;20150;-67
2022/08/06 05:33:38;;;;;;;18.50;11.60;;;;;;;;;;4375879;32;20100;-67
2022/08/06 05:36:10;;;;;;;15.77;10.88;;;;;;;;;;4375275;32;20153;-66
2022/08/06 05:38:39;;;;;;;12.60;8.13;;;;;;;;;;4375008;32;20127;-67
2022/08/06 05:41:08;;;;;;;11.73;8.18;;;;;;;;;;4387337;32;20554;-67
2022/08/06 05:43:35;;;;;;;15.30;10.95;;;;;;;;;;4389122;32;20518;-67
2022/08/06 05:46:08;;;;;;;14.48;10.00;;;;;;;;;;4374858;32;20094;-67
2022/08/06 05:48:56;;;;;;;15.48;9.02;;;;;;;;;;4374819;32;20078;-66
2022/08/06 05:51:33;;;;;;;12.07;8.93;;;;;;;;;;4387292;32;20090;-67
2022/08/06 05:54:18;;;;;;;12.73;8.32;;;;;;;;;;4374637;32;20104;-67
2022/08/06 05:56:46;;;;;;;12.25;8.20;;;;;;;;;;4374445;32;20513;-67
2022/08/06 05:59:26;;;;;;;12.52;6.37;;;;;;;;;;4375111;32;20168;-67
2022/08/06 06:01:53;;;;;;;8.80;5.32;;;;;;;;;;4374558;32;20528;-67
2022/08/06 06:04:20;;;;;;;8.07;5.68;;;;;;;;;;4374695;32;20162;-66
2022/08/06 06:06:47;;;;;;;8.02;4.55;;;;;;;;;;4375105;32;20170;-67
2022/08/06 06:09:14;;;;;;;7.32;5.87;;;;;;;;;;4379110;32;20074;-67
2022/08/06 06:11:41;;;;;;;6.75;5.15;;;;;;;;;;4364369;32;20441;-67
2022/08/06 06:14:33;;;;;;;7.62;5.57;;;;;;;;;;4352516;32;20452;-67
2022/08/06 06:17:10;;;;;;;8.50;5.82;;;;;;;;;;4364732;32;20149;-66
2022/08/06 06:19:55;;;;;;;8.27;5.82;;;;;;;;;;4378631;32;20069;-67
2022/08/06 06:22:44;;;;;;;7.27;5.63;;;;;;;;;;4365288;32;20090;-67
2022/08/06 06:25:20;;;;;;;6.85;5.65;;;;;;;;;;4376257;32;20134;-67
2022/08/06 06:28:22;;;;;;;;;;;;;;;;;;4365117;32;20058;-66
2022/08/06 06:31:02;;;;;;;11.40;5.53;;;;;;;;;;4331320;33;20025;-66
2022/08/06 06:33:44;;;;;;;7.68;5.57;;;;;;;;;;4359661;32;20078;-66
2022/08/06 06:36:34;;;;;;;6.70;5.10;;;;;;;;;;4364131;32;20504;-67
2022/08/06 06:39:45;;;;;;;6.43;4.47;;;;;;;;;;4370857;32;20086;-67
2022/08/06 06:42:22;;;;;;;5.70;4.60;;;;;;;;;;4349583;32;20085;-67
2022/08/06 06:45:07;;;;;;;8.15;4.68;;;;;;;;;;4364024;32;20104;-67
2022/08/06 06:48:03;;;;;;;9.13;5.22;;;;;;;;;;4363976;32;20084;-67
2022/08/06 06:50:34;;;;;;;5.27;4.17;;;;;;;;;;4378776;32;20058;-67
2022/08/06 06:53:01;;;;;;;6.15;4.12;;;;;;;;;;4364648;32;20085;-66
2022/08/06 06:55:37;;;;;;;5.82;4.30;;;;;;;;;;4363946;32;20089;-67
2022/08/06 06:58:06;;;;;;;7.37;4.78;;;;;;;;;;4377463;32;20516;-67
2022/08/06 07:00:33;;;;;;;5.80;4.60;;;;;;;;;;4363635;32;20154;-67
2022/08/06 07:03:01;;;;;;;8.23;4.93;;;;;;;;;;4376289;32;20182;-68
2022/08/06 07:05:30;;;;;;;8.70;5.00;;;;;;;;;;4364328;32;20105;-67
2022/08/06 07:07:58;;;;;;;4.90;3.42;;;;;;;;;;4364438;32;20497;-67
2022/08/06 07:10:25;;;;;;;5.53;3.95;;;;;;;;;;4364519;32;20147;-67
2022/08/06 07:12:52;;;;;;;4.62;3.75;;;;;;;;;;4364412;32;20142;-67
2022/08/06 07:15:21;;;;;;;5.82;3.25;;;;;;;;;;4364128;32;20117;-67
2022/08/06 07:17:49;;;;;;;5.53;3.35;;;;;;;;;;4363317;32;20136;-67
2022/08/06 07:20:20;;;;;;;5.10;3.40;;;;;;;;;;4363039;32;20214;-67
2022/08/06 07:22:48;;;;;;;5.25;3.20;;;;;;;;;;4363547;32;20074;-67
2022/08/06 07:25:15;;;;;;;4.20;3.05;;;;;;;;;;4363441;32;20067;-66
2022/08/06 07:27:48;;;;;;;4.85;3.30;;;;;;;;;;4363700;32;20078;-67
2022/08/06 07:30:16;;;;;;;4.85;3.30;;;;;;;;;;4366103;32;20093;-67
2022/08/06 07:32:44;;;;;;;3.90;3.25;;;;;;;;;;4364241;32;20536;-67
2022/08/06 07:35:12;;;;;;;4.72;3.20;;;;;;;;;;4375980;32;20173;-67
2022/08/06 07:37:51;;;;;;;4.82;3.35;;;;;;;;;;4364540;32;20142;-67
2022/08/06 07:40:35;;;;;;;2.85;2.55;;;;;;;;;;4377245;32;20093;-67
2022/08/06 07:43:25;;;;;;;5.95;2.85;;;;;;;;;;4363890;32;20192;-67
2022/08/06 07:45:56;;;;;;;2.83;2.60;;;;;;;;;;4363494;32;20197;-67
2022/08/06 07:48:47;;;;;;;4.70;2.92;;;;;;;;;;4362945;32;20480;-68
2022/08/06 07:51:14;;;;;;;5.00;3.45;;;;;;;;;;4350836;32;20070;-67
2022/08/06 07:53:42;;;;;;;4.62;3.10;;;;;;;;;;4362908;32;20065;-67
2022/08/06 07:56:09;;;;;;;4.07;2.58;;;;;;;;;;4363229;32;20089;-67
2022/08/06 07:58:37;;;;;;;4.87;2.78;;;;;;;;;;4377393;32;20085;-67
2022/08/06 08:01:06;;;;;;;3.70;2.85;;;;;;;;;;4362922;32;20100;-67
2022/08/06 08:06:23;;;;;;;5.12;3.10;;;;;;;;;;4365028;32;20081;-67
2022/08/06 08:08:54;;;;;;;3.47;2.65;;;;;;;;;;4363816;32;20078;-67
2022/08/06 08:11:23;;;;;;;3.97;2.62;;;;;;;;;;4363186;32;20145;-67
2022/08/06 08:13:54;;;;;;;3.15;2.80;;;;;;;;;;4363183;32;20144;-67
2022/08/06 08:16:21;;;;;;;3.72;3.00;;;;;;;;;;4362974;32;20105;-67
2022/08/06 08:18:48;;;;;;;4.07;2.90;;;;;;;;;;4362773;32;20059;-67
2022/08/06 08:21:15;;;;;;;4.35;3.08;;;;;;;;;;4376786;32;20100;-67
2022/08/06 08:23:44;;;;;;;4.37;2.75;;;;;;;;;;4375066;32;20155;-67
2022/08/06 08:26:11;;;;;;;5.50;2.87;;;;;;;;;;4362768;32;20082;-67
2022/08/06 08:28:37;;;;;;;3.75;2.80;;;;;;;;;;4363010;32;20577;-66
2022/08/06 08:31:06;;;;;;;3.87;2.70;;;;;;;;;;4362901;32;20528;-66
2022/08/06 08:33:33;;;;;;;4.10;3.17;;;;;;;;;;4362517;32;20070;-67
2022/08/06 08:36:00;;;;;;;3.72;3.00;;;;;;;;;;4363099;32;20178;-68
2022/08/06 08:38:34;;;;;;;4.25;3.20;;;;;;;;;;4362531;32;20066;-67
2022/08/06 08:41:03;;;;;;;4.43;3.10;;;;;;;;;;4362477;32;20094;-67
2022/08/06 08:43:37;;;;;;;3.45;3.00;;;;;;;;;;4362637;32;20074;-67
2022/08/06 08:46:06;;;;;;;4.15;2.80;;;;;;;;;;4376640;32;20077;-67
2022/08/06 08:48:32;;;;;;;4.60;2.90;;;;;;;;;;4362681;32;20089;-67
2022/08/06 08:51:00;;;;;;;3.60;2.87;;;;;;;;;;4374959;32;20101;-67
2022/08/06 08:53:36;;;;;;;5.28;3.03;;;;;;;;;;4362379;32;20077;-66
2022/08/06 08:56:03;;;;;;;;;;;;;;;;;;4362407;32;20682;-67
2022/08/06 08:58:31;;;;;;;5.10;2.92;;;;;;;;;;4362056;32;20367;-66
2022/08/06 09:00:58;;;;;;;4.07;3.10;;;;;;;;;;4375570;32;20073;-66
2022/08/06 09:03:25;;;;;;;4.18;3.10;;;;;;;;;;4374796;32;20085;-67
2022/08/06 09:05:52;;;;;;;5.40;3.17;;;;;;;;;;4376830;32;20078;-66
2022/08/06 09:08:19;;;;;;;3.62;3.12;;;;;;;;;;4362669;32;20085;-67
2022/08/06 09:10:46;;;;;;;9.07;6.28;;;;;;;;;;4363270;32;20560;-67
2022/08/06 09:13:13;;;;;;;3.53;2.95;;;;;;;;;;4362371;32;20078;-67
2022/08/06 09:15:41;;;;;;;5.12;3.80;;;;;;;;;;4362277;32;20576;-65
2022/08/06 09:18:07;;;;;;;6.95;4.68;;;;;;;;;;4362274;32;20071;-67
2022/08/06 09:20:35;;;;;;;8.13;3.62;;;;;;;;;;4362992;32;20093;-67
2022/08/06 09:23:02;;;;;;;4.05;3.10;;;;;;;;;;4362218;32;20086;-66
2022/08/06 09:25:55;;;;;;;4.10;3.10;;;;;;;;;;4375979;32;20074;-67
2022/08/06 09:28:32;;;;;;;6.87;5.43;;;;;;;;;;4359627;32;20235;-67
2022/08/06 09:31:04;;;;;;;7.60;5.65;;;;;;;;;;4362706;32;20515;-67
2022/08/06 09:33:37;;;;;;;6.82;5.45;;;;;;;;;;4376406;32;20089;-66
2022/08/06 09:36:05;;;;;;;10.13;4.85;;;;;;;;;;4349390;32;20522;-67
2022/08/06 09:38:32;;;;;;;5.78;4.40;;;;;;;;;;4376338;32;20098;-66
2022/08/06 09:41:09;;;;;;;5.22;4.10;;;;;;;;;;4361913;32;20108;-67
2022/08/06 09:43:37;;;;;;;6.22;4.10;;;;;;;;;;4377215;32;20085;-67
2022/08/06 09:46:04;;;;;;;4.93;3.85;;;;;;;;;;4365616;32;20078;-67
2022/08/06 09:48:31;;;;;;;7.25;3.97;;;;;;;;;;4364800;32;20523;-66
2022/08/06 09:50:58;;;;;;;4.12;3.58;;;;;;;;;;4378601;32;20157;-65
2022/08/06 09:53:25;;;;;;;5.75;3.35;;;;;;;;;;4380114;32;20157;-67
2022/08/06 09:55:54;;;;;;;3.75;3.20;;;;;;;;;;4369438;32;20087;-66
2022/08/06 09:58:37;;;;;;;3.65;3.30;;;;;;;;;;4365682;32;20078;-65
2022/08/06 10:01:20;;;;;;;4.47;3.30;;;;;;;;;;4377401;32;20094;-67
2022/08/06 10:03:47;;;;;;;5.32;3.60;;;;;;;;;;4378443;32;20162;-67
2022/08/06 10:06:20;;;;;;;5.30;3.45;;;;;;;;;;4364532;32;20159;-65
2022/08/06 10:08:49;;;;;;;5.15;3.45;;;;;;;;;;4377638;32;20509;-65
2022/08/06 10:11:32;;;;;;;5.25;2.97;;;;;;;;;;4364401;32;20079;-67
2022/08/06 10:13:59;;;;;;;4.18;3.30;;;;;;;;;;4364462;32;20081;-66
2022/08/06 10:16:30;;;;;;;4.22;3.00;;;;;;;;;;4364158;32;20542;-68
2022/08/06 10:18:58;;;;;;;4.55;2.92;;;;;;;;;;4353594;32;20093;-67
2022/08/06 10:21:34;;;;;;;5.05;3.10;;;;;;;;;;4378299;32;20086;-68
2022/08/06 10:24:03;;;;;;;4.20;3.17;;;;;;;;;;4377113;32;20059;-67
2022/08/06 10:26:32;;;;;;;5.60;3.67;;;;;;;;;;4364324;32;20521;-68
2022/08/06 10:29:18;;;;;;;3.00;2.70;;;;;;;;;;4364295;32;20516;-68
2022/08/06 10:31:45;;;;;;;;;;;;;;;;;;4352604;32;20206;-67
2022/08/06 10:34:20;;;;;;;4.47;2.85;;;;;;;;;;4364360;32;19976;-68
2022/08/06 10:36:59;;;;;;;4.43;3.05;;;;;;;;;;4364421;32;20081;-67
2022/08/06 10:39:33;;;;;;;3.78;3.12;;;;;;;;;;4378072;32;20193;-67
2022/08/06 10:42:01;;;;;;;4.40;3.20;;;;;;;;;;4377743;32;20077;-68
2022/08/06 10:44:28;;;;;;;5.43;3.00;;;;;;;;;;4364784;32;20096;-67
2022/08/06 10:46:55;;;;;;;4.22;3.10;;;;;;;;;;4363854;32;20067;-66
2022/08/06 10:49:22;;;;;;;4.00;3.20;;;;;;;;;;4364457;32;20074;-68
2022/08/06 10:51:52;;;;;;;4.28;3.10;;;;;;;;;;4364533;32;20073;-68
2022/08/06 10:54:19;;;;;;;4.75;2.90;;;;;;;;;;4378230;32;20090;-67
2022/08/06 10:56:49;;;;;;;5.32;3.83;;;;;;;;;;4363704;32;20078;-67
2022/08/06 10:59:16;;;;;;;4.18;3.10;;;;;;;;;;4377726;32;20115;-68
2022/08/06 11:01:46;;;;;;;7.37;4.00;;;;;;;;;;4364363;32;20069;-69
2022/08/06 11:04:24;;;;;;;3.33;2.90;;;;;;;;;;4363750;32;20149;-68
2022/08/06 11:06:54;;;;;;;3.35;2.95;;;;;;;;;;4378339;32;20080;-68
2022/08/06 11:09:29;;;;;;;4.28;2.97;;;;;;;;;;4377975;32;20153;-69
2022/08/06 11:11:58;;;;;;;7.00;3.22;;;;;;;;;;4364067;32;20116;-69
2022/08/06 11:14:26;;;;;;;4.10;3.00;;;;;;;;;;4376268;32;20065;-68
2022/08/06 11:16:58;;;;;;;5.25;2.60;;;;;;;;;;4377344;32;20085;-69
2022/08/06 11:19:57;;;;;;;3.30;2.65;;;;;;;;;;4364080;32;20097;-69
2022/08/06 11:22:37;;;;;;;3.25;2.75;;;;;;;;;;4331181;32;20094;-69
2022/08/06 11:25:08;;;;;;;4.45;2.78;;;;;;;;;;4363364;32;20086;-68
2022/08/06 11:27:52;;;;;;;4.43;3.03;;;;;;;;;;4364278;32;20524;-69
2022/08/06 11:30:22;;;;;;;3.37;2.90;;;;;;;;;;4363700;32;20167;-68
2022/08/06 11:32:52;;;;;;;3.40;3.05;;;;;;;;;;4363368;32;20090;-68
2022/08/06 11:35:34;;;;;;;6.25;3.08;;;;;;;;;;4364067;32;20086;-69
2022/08/06 11:38:02;;;;;;;3.55;3.20;;;;;;;;;;4377677;32;20093;-68
2022/08/06 11:40:56;;;;;;;4.95;3.37;;;;;;;;;;4377108;32;20143;-68
2022/08/06 11:43:48;;;;;;;4.57;3.15;;;;;;;;;;4363669;32;20164;-69
2022/08/06 11:46:26;;;;;;;4.45;3.40;;;;;;;;;;4376833;32;20093;-68
2022/08/06 11:49:06;;;;;;;3.22;2.92;;;;;;;;;;4363348;32;20078;-68
2022/08/06 11:51:51;;;;;;;3.60;2.67;;;;;;;;;;4377350;32;20150;-69
2022/08/06 11:54:25;;;;;;;4.53;3.10;;;;;;;;;;4363393;32;20066;-69
2022/08/06 11:57:01;;;;;;;6.37;3.60;;;;;;;;;;4375953;32;20116;-68
2022/08/06 11:59:29;;;;;;;3.08;2.67;;;;;;;;;;4377588;32;20085;-69
2022/08/06 12:01:56;;;;;;;3.70;2.75;;;;;;;;;;4363261;32;20508;-69
2022/08/06 12:04:42;;;;;;;4.50;2.80;;;;;;;;;;4362981;32;20162;-69
2022/08/06 12:07:18;;;;;;;4.47;3.03;;;;;;;;;;4362688;32;20082;-69
2022/08/06 12:09:45;;;;;;;4.25;3.08;;;;;;;;;;4377355;32;20081;-68
2022/08/06 12:12:32;;;;;;;5.20;3.00;;;;;;;;;;4363057;32;20090;-68
2022/08/06 12:15:26;;;;;;;5.32;3.00;;;;;;;;;;4375203;32;20069;-69
2022/08/06 12:17:57;;;;;;;4.40;3.05;;;;;;;;;;4376629;32;20086;-68
2022/08/06 12:20:41;;;;;;;4.55;3.17;;;;;;;;;;4377235;32;20065;-69
2022/08/06 12:23:11;;;;;;;3.42;2.92;;;;;;;;;;4362684;32;20093;-68
2022/08/06 12:25:39;;;;;;;3.67;2.92;;;;;;;;;;4376233;32;20135;-69
2022/08/06 12:28:07;;;;;;;5.90;3.17;;;;;;;;;;4363086;32;20158;-68
2022/08/06 12:30:45;;;;;;;4.65;3.00;;;;;;;;;;4375290;32;20089;-68
2022/08/06 12:33:12;;;;;;;3.33;2.90;;;;;;;;;;4362479;32;20086;-68
2022/08/06 12:35:52;;;;;;;3.53;2.90;;;;;;;;;;4375307;32;20519;-69
2022/08/06 12:38:21;;;;;;;3.40;2.83;;;;;;;;;;4375321;32;20077;-68
2022/08/06 12:40:59;;;;;;;5.18;3.10;;;;;;;;;;4363288;32;20070;-67
2022/08/06 12:43:27;;;;;;;4.50;3.15;;;;;;;;;;4375253;32;20086;-68
2022/08/06 12:46:01;;;;;;;5.70;3.55;;;;;;;;;;4362833;32;20166;-69
2022/08/06 12:48:27;;;;;;;4.20;3.30;;;;;;;;;;4376255;32;20069;-69
2022/08/06 12:51:13;;;;;;;5.30;3.70;;;;;;;;;;4376651;32;20081;-68
2022/08/06 12:53:54;;;;;;;5.97;3.37;;;;;;;;;;4362773;32;20088;-68
2022/08/06 12:56:23;;;;;;;4.18;2.97;;;;;;;;;;4375875;32;20110;-69
2022/08/06 12:58:51;;;;;;;4.82;3.53;;;;;;;;;;4362397;32;20169;-68
2022/08/06 13:01:22;;;;;;;4.95;3.30;;;;;;;;;;4362428;32;20161;-68
2022/08/06 13:03:51;;;;;;;6.62;3.30;;;;;;;;;;4362705;32;20520;-68
2022/08/06 13:06:19;;;;;;;3.50;3.10;;;;;;;;;;4362436;32;20093;-68
2022/08/06 13:08:47;;;;;;;4.35;3.33;;;;;;;;;;4362258;32;20149;-69
2022/08/06 13:11:14;;;;;;;4.32;3.20;;;;;;;;;;4362163;32;20085;-70
2022/08/06 13:13:45;;;;;;;5.75;3.22;;;;;;;;;;4376149;32;20078;-67
2022/08/06 13:16:14;;;;;;;3.33;3.03;;;;;;;;;;4362728;32;20101;-68
2022/08/06 13:18:42;;;;;;;7.62;3.50;;;;;;;;;;4364110;32;20078;-69
2022/08/06 13:21:20;;;;;;;6.62;3.70;;;;;;;;;;4365865;32;20069;-69
2022/08/06 13:23:51;;;;;;;6.87;3.30;;;;;;;;;;4365002;32;20074;-68
2022/08/06 13:26:20;;;;;;;3.87;3.33;;;;;;;;;;4379396;32;20078;-69
2022/08/06 13:29:07;;;;;;;3.90;2.97;;;;;;;;;;4365178;32;20092;-69
2022/08/06 13:31:38;;;;;;;4.30;3.22;;;;;;;;;;4365605;32;20065;-68
2022/08/06 13:34:07;;;;;;;4.72;3.12;;;;;;;;;;4365036;32;20489;-69
2022/08/06 13:36:36;;;;;;;5.05;3.28;;;;;;;;;;4379151;32;20079;-69
2022/08/06 13:39:42;;;;;;;4.65;3.05;;;;;;;;;;4379391;32;20079;-69
2022/08/06 13:42:11;;;;;;;3.55;3.20;;;;;;;;;;4304890;33;20616;-69
2022/08/06 13:44:43;;;;;;;3.75;3.20;;;;;;;;;;4356347;32;20086;-68
2022/08/06 13:47:13;;;;;;;4.32;3.30;;;;;;;;;;4378109;32;20075;-68
2022/08/06 13:49:40;;;;;;;3.45;3.10;;;;;;;;;;4365852;32;20584;-69
2022/08/06 13:52:07;;;;;;;4.22;3.20;;;;;;;;;;4364800;32;20118;-69
2022/08/06 13:54:35;;;;;;;4.28;3.30;;;;;;;;;;4364891;32;20109;-69
2022/08/06 13:57:02;;;;;;;3.30;3.00;;;;;;;;;;4377097;32;20082;-70
2022/08/06 13:59:31;;;;;;;3.75;2.97;;;;;;;;;;4365293;32;20079;-68
2022/08/06 14:01:58;;;;;;;6.62;3.20;;;;;;;;;;4364999;32;20082;-69
2022/08/06 14:04:27;;;;;;;4.30;2.97;;;;;;;;;;4364768;32;20079;-68
2022/08/06 14:06:55;;;;;;;5.00;3.10;;;;;;;;;;4377087;32;20081;-69
2022/08/06 14:09:28;;;;;;;4.10;3.50;;;;;;;;;;4365200;32;20081;-68
2022/08/06 14:11:59;;;;;;;4.37;2.90;;;;;;;;;;4364522;32;20507;-68
2022/08/06 14:14:28;;;;;;;3.83;2.87;;;;;;;;;;4378495;32;20175;-68
2022/08/06 14:16:56;;;;;;;5.12;2.90;;;;;;;;;;4364399;32;20096;-69
2022/08/06 14:19:23;;;;;;;5.32;3.15;;;;;;;;;;4352312;32;20070;-68
2022/08/06 14:21:50;;;;;;;3.97;3.00;;;;;;;;;;4365060;32;20074;-68
2022/08/06 14:24:16;;;;;;;5.55;3.40;;;;;;;;;;4364299;32;20153;-68
2022/08/06 14:26:43;;;;;;;6.35;3.40;;;;;;;;;;4365055;32;20089;-68
2022/08/06 14:29:10;;;;;;;6.22;3.08;;;;;;;;;;4376847;32;20099;-69
2022/08/06 14:31:36;;;;;;;5.22;3.08;;;;;;;;;;4377155;32;20451;-69
2022/08/06 14:34:03;;;;;;;5.65;3.10;;;;;;;;;;4364538;32;20090;-69
2022/08/06 14:36:30;;;;;;;4.70;3.08;;;;;;;;;;4365099;32;20078;-68
2022/08/06 14:38:57;;;;;;;3.22;2.90;;;;;;;;;;4364845;32;20073;-67
2022/08/06 14:46:56;;;;;;;3.67;2.90;;;;;;;;;;4354152;32;20070;-68
2022/08/06 14:49:22;;;;;;;4.78;3.28;;;;;;;;;;4364787;32;20076;-68
2022/08/06 14:51:49;;;;;;;4.15;3.03;;;;;;;;;;4376568;32;20082;-67
2022/08/06 14:54:17;;;;;;;4.03;3.28;;;;;;;;;;4376947;32;20118;-68
2022/08/06 14:56:45;;;;;;;5.62;3.10;;;;;;;;;;4377804;32;20546;-68
2022/08/06 14:59:12;;;;;;;5.43;2.87;;;;;;;;;;4364936;32;20067;-68
2022/08/06 15:01:39;;;;;;;4.18;3.00;;;;;;;;;;4352121;32;20078;-69
2022/08/06 15:04:06;;;;;;;4.87;3.08;;;;;;;;;;4376812;32;20556;-68
2022/08/06 15:06:32;;;;;;;3.10;2.80;;;;;;;;;;4376806;32;20082;-68
2022/08/06 15:09:00;;;;;;;5.65;2.83;;;;;;;;;;4364229;32;20523;-68
2022/08/06 15:11:26;;;;;;;4.43;3.03;;;;;;;;;;4351672;32;20176;-67